Time;durP1;ratioP1;P1;durP2;ratioP2;P2;SDS_P1;SDS_P2;PMS_P1;PMS_P2;Temp;Humidity;BMP_temperature;BMP_pressure;BME280_temperature;BME280_humidity;BME280_pressure;Samples;Min_cycle;Max_cycle;Signal;HPM_P1;HPM_P2
2022/04/07 00:01:16;;;;;;;3.55;1.75;;;;;;;;;;5009580;28;20555;-70
2022/04/07 00:03:41;;;;;;;2.53;1.92;;;;;;;;;;5006167;28;20057;-70
2022/04/07 00:06:09;;;;;;;3.70;2.00;;;;;;;;;;5025072;28;20681;-70
2022/04/07 00:08:38;;;;;;;3.95;1.88;;;;;;;;;;5008244;28;20407;-70
2022/04/07 00:11:04;;;;;;;4.03;2.30;;;;;;;;;;5009620;28;20021;-71
2022/04/07 00:13:29;;;;;;;4.85;1.90;;;;;;;;;;5009135;28;20420;-71
2022/04/07 00:15:56;;;;;;;2.67;1.88;;;;;;;;;;5006873;28;20092;-71
2022/04/07 00:18:22;;;;;;;4.97;2.08;;;;;;;;;;5008692;28;20493;-71
2022/04/07 00:20:47;;;;;;;6.55;1.90;;;;;;;;;;5008506;28;20137;-71
2022/04/07 00:23:12;;;;;;;3.85;2.35;;;;;;;;;;5013699;28;20033;-71
2022/04/07 00:25:38;;;;;;;3.75;1.88;;;;;;;;;;5011171;28;20030;-70
2022/04/07 00:28:03;;;;;;;6.93;2.50;;;;;;;;;;4999868;28;20034;-70
2022/04/07 00:30:30;;;;;;;3.88;2.33;;;;;;;;;;5013710;28;20050;-70
2022/04/07 00:32:55;;;;;;;7.45;2.70;;;;;;;;;;5008034;28;20052;-70
2022/04/07 00:35:22;;;;;;;4.70;2.22;;;;;;;;;;5007447;28;20136;-70
2022/04/07 00:37:48;;;;;;;2.90;2.05;;;;;;;;;;4987372;28;20500;-71
2022/04/07 00:40:13;;;;;;;3.38;2.20;;;;;;;;;;4988375;28;20039;-71
2022/04/07 00:42:46;;;;;;;4.40;2.67;;;;;;;;;;4987719;28;20042;-71
2022/04/07 00:45:13;;;;;;;5.05;2.30;;;;;;;;;;4987954;28;20420;-71
2022/04/07 00:47:39;;;;;;;3.67;2.28;;;;;;;;;;4987861;28;20033;-70
2022/04/07 00:50:04;;;;;;;4.05;2.40;;;;;;;;;;4985245;28;20492;-71
2022/04/07 00:52:32;;;;;;;4.43;2.20;;;;;;;;;;4981904;28;20039;-70
2022/04/07 00:54:59;;;;;;;4.15;2.40;;;;;;;;;;4983728;28;20030;-70
2022/04/07 00:57:24;;;;;;;5.35;2.42;;;;;;;;;;4988850;28;20119;-71
2022/04/07 00:59:50;;;;;;;3.55;2.10;;;;;;;;;;4987515;28;20064;-71
2022/04/07 01:02:15;;;;;;;3.95;2.00;;;;;;;;;;4989227;28;20038;-71
2022/04/07 01:04:41;;;;;;;4.95;2.33;;;;;;;;;;4987189;28;20030;-71
2022/04/07 01:07:08;;;;;;;2.85;1.85;;;;;;;;;;4989058;28;20038;-71
2022/04/07 01:09:34;;;;;;;3.08;2.17;;;;;;;;;;4988147;28;20046;-71
2022/04/07 01:11:59;;;;;;;6.72;2.35;;;;;;;;;;4988382;28;20046;-71
2022/04/07 01:14:25;;;;;;;3.92;2.40;;;;;;;;;;4986363;28;20608;-70
2022/04/07 01:16:50;;;;;;;4.25;2.35;;;;;;;;;;4986890;28;20034;-71
2022/04/07 01:19:15;;;;;;;3.97;2.33;;;;;;;;;;4986428;28;20050;-70
2022/04/07 01:21:41;;;;;;;4.88;2.30;;;;;;;;;;4987899;28;20125;-71
2022/04/07 01:24:09;;;;;;;5.05;2.30;;;;;;;;;;4987384;28;20547;-71
2022/04/07 01:26:37;;;;;;;5.78;2.50;;;;;;;;;;4981243;28;20552;-71
2022/04/07 01:29:04;;;;;;;2.95;1.88;;;;;;;;;;4982083;28;20038;-70
2022/04/07 01:31:31;;;;;;;4.15;2.00;;;;;;;;;;4987546;28;20097;-71
2022/04/07 01:33:57;;;;;;;3.63;1.90;;;;;;;;;;4987959;28;20039;-71
2022/04/07 01:36:25;;;;;;;7.35;2.05;;;;;;;;;;4987267;28;20117;-70
2022/04/07 01:38:52;;;;;;;4.40;2.20;;;;;;;;;;4985895;28;20046;-70
2022/04/07 01:41:19;;;;;;;6.03;2.15;;;;;;;;;;4986961;28;20062;-70
2022/04/07 01:43:45;;;;;;;3.85;1.95;;;;;;;;;;4986006;28;20480;-70
2022/04/07 01:46:12;;;;;;;4.00;1.55;;;;;;;;;;4986650;28;20038;-70
2022/04/07 01:48:38;;;;;;;7.15;2.00;;;;;;;;;;4988460;28;20049;-70
2022/04/07 01:51:05;;;;;;;5.85;1.75;;;;;;;;;;4990242;28;20075;-71
2022/04/07 01:53:31;;;;;;;4.05;2.10;;;;;;;;;;5007741;28;20025;-70
2022/04/07 01:55:58;;;;;;;6.88;2.00;;;;;;;;;;5006585;28;20488;-70
2022/04/07 01:58:24;;;;;;;4.03;2.05;;;;;;;;;;5006129;28;20522;-71
2022/04/07 02:00:49;;;;;;;4.68;2.20;;;;;;;;;;5006368;28;20050;-71
2022/04/07 02:03:15;;;;;;;5.65;2.47;;;;;;;;;;5007026;28;20054;-70
2022/04/07 02:05:40;;;;;;;5.30;2.30;;;;;;;;;;5012555;28;20078;-70
2022/04/07 02:08:06;;;;;;;3.65;2.35;;;;;;;;;;5007816;28;20088;-70
2022/04/07 02:10:32;;;;;;;3.63;2.40;;;;;;;;;;5005959;28;20034;-70
2022/04/07 02:12:58;;;;;;;5.75;2.10;;;;;;;;;;5005801;28;20474;-71
2022/04/07 02:15:26;;;;;;;4.22;2.42;;;;;;;;;;5006338;28;20038;-71
2022/04/07 02:17:51;;;;;;;4.40;2.88;;;;;;;;;;5006629;28;20142;-71
2022/04/07 02:20:18;;;;;;;4.63;2.47;;;;;;;;;;5007108;28;20153;-71
2022/04/07 02:22:43;;;;;;;4.55;2.55;;;;;;;;;;5005272;28;20065;-71
2022/04/07 02:25:09;;;;;;;4.50;2.75;;;;;;;;;;5013800;28;20042;-71
2022/04/07 02:27:36;;;;;;;4.15;2.80;;;;;;;;;;5004398;28;20049;-70
2022/04/07 02:30:03;;;;;;;3.20;2.30;;;;;;;;;;5007558;28;20045;-71
2022/04/07 02:32:28;;;;;;;3.95;2.90;;;;;;;;;;5003775;28;20095;-71
2022/04/07 02:34:54;;;;;;;3.95;2.35;;;;;;;;;;5008216;28;20093;-71
2022/04/07 02:37:19;;;;;;;5.70;2.88;;;;;;;;;;5005503;28;20673;-71
2022/04/07 02:39:45;;;;;;;4.22;2.50;;;;;;;;;;5005532;28;20121;-70
2022/04/07 02:42:10;;;;;;;4.25;2.35;;;;;;;;;;5005660;28;20038;-71
2022/04/07 02:44:35;;;;;;;4.93;2.60;;;;;;;;;;5007231;28;20029;-71
2022/04/07 02:47:01;;;;;;;3.90;1.73;;;;;;;;;;5005365;28;20092;-71
2022/04/07 02:49:26;;;;;;;2.55;1.70;;;;;;;;;;5007358;28;20044;-71
2022/04/07 02:51:51;;;;;;;3.42;1.90;;;;;;;;;;5010073;28;20041;-71
2022/04/07 02:54:17;;;;;;;3.83;2.10;;;;;;;;;;5010512;28;20416;-71
2022/04/07 02:56:42;;;;;;;4.13;2.10;;;;;;;;;;5009662;28;20049;-71
2022/04/07 02:59:07;;;;;;;3.97;1.80;;;;;;;;;;5011384;28;20045;-71
2022/04/07 03:01:33;;;;;;;2.10;1.60;;;;;;;;;;5008970;28;20034;-71
2022/04/07 03:03:59;;;;;;;3.83;1.67;;;;;;;;;;5012139;28;20468;-71
2022/04/07 03:06:25;;;;;;;4.55;1.40;;;;;;;;;;5012760;28;20115;-71
2022/04/07 03:08:50;;;;;;;4.57;1.58;;;;;;;;;;5004024;28;20124;-70
2022/04/07 03:11:16;;;;;;;2.63;1.70;;;;;;;;;;5010812;28;20096;-71
2022/04/07 03:13:42;;;;;;;5.72;2.05;;;;;;;;;;5008837;28;20480;-70
2022/04/07 03:16:08;;;;;;;3.78;2.58;;;;;;;;;;5009247;28;20048;-71
2022/04/07 03:18:34;;;;;;;5.63;2.78;;;;;;;;;;5002742;28;20038;-71
2022/04/07 03:20:59;;;;;;;7.90;3.17;;;;;;;;;;5010472;28;20077;-71
2022/04/07 03:23:25;;;;;;;4.63;2.83;;;;;;;;;;5008734;28;20022;-71
2022/04/07 03:25:50;;;;;;;7.72;2.80;;;;;;;;;;5011004;28;20029;-70
2022/04/07 03:28:16;;;;;;;9.05;3.47;;;;;;;;;;5006021;28;20147;-70
2022/04/07 03:30:41;;;;;;;9.07;3.50;;;;;;;;;;5008734;28;20038;-71
2022/04/07 03:33:07;;;;;;;7.80;3.60;;;;;;;;;;5008659;28;20129;-70
2022/04/07 03:35:33;;;;;;;8.95;3.25;;;;;;;;;;5010090;28;20045;-71
2022/04/07 03:37:59;;;;;;;9.60;3.15;;;;;;;;;;5007771;28;20121;-71
2022/04/07 03:40:25;;;;;;;7.10;2.95;;;;;;;;;;5010045;28;20049;-71
2022/04/07 03:42:51;;;;;;;7.20;2.55;;;;;;;;;;5011544;28;20571;-70
2022/04/07 03:45:16;;;;;;;5.03;2.55;;;;;;;;;;5008046;28;20145;-70
2022/04/07 03:47:41;;;;;;;8.82;2.67;;;;;;;;;;5008666;28;20121;-70
2022/04/07 03:50:07;;;;;;;7.80;3.08;;;;;;;;;;5008845;28;20030;-70
2022/04/07 03:52:33;;;;;;;9.60;3.65;;;;;;;;;;5006891;28;20046;-70
2022/04/07 03:54:58;;;;;;;9.98;3.40;;;;;;;;;;5008280;28;20121;-71
2022/04/07 03:57:24;;;;;;;8.18;3.00;;;;;;;;;;5008724;28;20431;-71
2022/04/07 03:59:49;;;;;;;6.70;2.33;;;;;;;;;;5009241;28;20133;-70
2022/04/07 04:02:14;;;;;;;7.25;2.55;;;;;;;;;;5009091;28;20515;-71
2022/04/07 04:04:40;;;;;;;8.30;3.03;;;;;;;;;;5015524;28;20076;-71
2022/04/07 04:07:05;;;;;;;7.30;2.65;;;;;;;;;;5016583;28;20073;-71
2022/04/07 04:09:32;;;;;;;7.95;2.70;;;;;;;;;;5007632;28;20038;-71
2022/04/07 04:11:58;;;;;;;9.02;2.83;;;;;;;;;;5008229;28;20053;-71
2022/04/07 04:14:23;;;;;;;5.25;2.67;;;;;;;;;;5007406;28;20052;-71
2022/04/07 04:16:49;;;;;;;5.47;2.20;;;;;;;;;;5009837;28;20079;-71
2022/04/07 04:19:14;;;;;;;5.57;2.30;;;;;;;;;;5007466;28;20030;-71
2022/04/07 04:21:40;;;;;;;7.65;2.08;;;;;;;;;;5007989;28;20084;-71
2022/04/07 04:24:05;;;;;;;5.35;2.20;;;;;;;;;;5007578;28;20033;-71
2022/04/07 04:26:30;;;;;;;3.40;1.67;;;;;;;;;;5007652;28;20030;-70
2022/04/07 04:28:56;;;;;;;6.45;1.92;;;;;;;;;;5010021;28;20491;-70
2022/04/07 04:31:24;;;;;;;3.60;1.80;;;;;;;;;;5007438;28;20591;-71
2022/04/07 04:33:51;;;;;;;8.18;2.50;;;;;;;;;;5002141;28;20523;-70
2022/04/07 04:36:16;;;;;;;6.28;1.83;;;;;;;;;;5008856;28;20042;-70
2022/04/07 04:38:42;;;;;;;6.18;1.70;;;;;;;;;;5005878;28;20049;-70
2022/04/07 04:41:07;;;;;;;9.75;2.10;;;;;;;;;;5008989;28;20053;-70
2022/04/07 04:43:32;;;;;;;6.13;1.88;;;;;;;;;;5009144;28;20026;-71
2022/04/07 04:45:58;;;;;;;7.75;1.75;;;;;;;;;;5008611;28;20103;-71
2022/04/07 04:48:23;;;;;;;3.58;1.80;;;;;;;;;;5008536;28;20096;-71
2022/04/07 04:50:48;;;;;;;5.13;1.63;;;;;;;;;;5007271;28;20125;-71
2022/04/07 04:53:14;;;;;;;4.28;1.65;;;;;;;;;;5008718;28;20036;-70
2022/04/07 04:55:39;;;;;;;5.05;1.58;;;;;;;;;;5007441;28;20034;-71
2022/04/07 04:58:04;;;;;;;6.43;1.67;;;;;;;;;;5008369;28;20389;-71
2022/04/07 05:00:30;;;;;;;6.05;1.52;;;;;;;;;;5006927;28;20048;-71
2022/04/07 05:02:55;;;;;;;5.13;1.40;;;;;;;;;;5007139;28;20423;-71
2022/04/07 05:05:20;;;;;;;6.55;1.35;;;;;;;;;;5007254;28;20021;-71
2022/04/07 05:07:46;;;;;;;3.58;1.30;;;;;;;;;;5008640;28;20550;-71
2022/04/07 05:10:11;;;;;;;2.63;1.20;;;;;;;;;;5005890;28;20053;-71
2022/04/07 05:12:36;;;;;;;4.05;1.17;;;;;;;;;;5006826;28;20030;-71
2022/04/07 05:15:02;;;;;;;4.82;1.38;;;;;;;;;;5005271;28;20034;-71
2022/04/07 05:17:27;;;;;;;7.43;1.50;;;;;;;;;;5008195;28;20033;-71
2022/04/07 05:19:53;;;;;;;5.53;1.33;;;;;;;;;;5007403;28;20030;-71
2022/04/07 05:22:18;;;;;;;3.00;1.38;;;;;;;;;;5007901;28;20041;-70
2022/04/07 05:24:44;;;;;;;5.18;2.15;;;;;;;;;;5006585;28;20062;-71
2022/04/07 05:27:09;;;;;;;2.97;1.40;;;;;;;;;;5005400;28;20026;-71
2022/04/07 05:29:35;;;;;;;3.03;1.48;;;;;;;;;;5007210;28;20022;-71
2022/04/07 05:32:00;;;;;;;4.72;1.50;;;;;;;;;;5006425;28;20026;-71
2022/04/07 05:34:25;;;;;;;2.08;1.27;;;;;;;;;;5007158;28;20109;-71
2022/04/07 05:36:51;;;;;;;5.45;1.88;;;;;;;;;;5006381;28;20069;-71
2022/04/07 05:39:16;;;;;;;5.28;1.30;;;;;;;;;;5007307;28;20485;-71
2022/04/07 05:41:41;;;;;;;2.33;1.38;;;;;;;;;;5006856;28;20551;-70
2022/04/07 05:44:07;;;;;;;4.97;1.75;;;;;;;;;;5008203;28;20069;-71
2022/04/07 05:46:32;;;;;;;3.22;2.08;;;;;;;;;;5005170;28;20042;-71
2022/04/07 05:48:57;;;;;;;6.05;2.17;;;;;;;;;;5007429;28;20057;-70
2022/04/07 05:51:23;;;;;;;5.47;1.83;;;;;;;;;;5006294;28;20056;-71
2022/04/07 05:53:48;;;;;;;5.35;1.75;;;;;;;;;;5008250;28;20129;-71
2022/04/07 05:56:13;;;;;;;9.30;2.10;;;;;;;;;;5005055;28;20028;-71
2022/04/07 05:58:39;;;;;;;8.30;1.77;;;;;;;;;;5007381;28;20724;-71
2022/04/07 06:01:04;;;;;;;5.07;2.10;;;;;;;;;;5005640;28;20050;-71
2022/04/07 06:03:31;;;;;;;10.25;2.00;;;;;;;;;;5007254;28;20046;-71
2022/04/07 06:05:57;;;;;;;5.25;1.92;;;;;;;;;;5007654;28;20538;-71
2022/04/07 06:08:22;;;;;;;5.28;2.20;;;;;;;;;;5007286;28;20022;-71
2022/04/07 06:10:48;;;;;;;6.38;1.75;;;;;;;;;;5005222;28;20040;-70
2022/04/07 06:13:14;;;;;;;3.72;1.70;;;;;;;;;;5007062;28;20034;-70
2022/04/07 06:15:40;;;;;;;2.65;1.73;;;;;;;;;;5006570;28;20655;-71
2022/04/07 06:18:06;;;;;;;7.68;2.30;;;;;;;;;;5006507;28;20113;-71
2022/04/07 06:20:31;;;;;;;4.00;1.52;;;;;;;;;;5006859;28;20113;-71
2022/04/07 06:22:57;;;;;;;5.05;1.60;;;;;;;;;;5008439;28;20061;-71
2022/04/07 06:25:22;;;;;;;4.80;1.98;;;;;;;;;;5010210;28;20088;-70
2022/04/07 06:27:48;;;;;;;3.55;1.73;;;;;;;;;;5012524;28;20068;-70
2022/04/07 06:30:15;;;;;;;3.45;1.70;;;;;;;;;;5012691;28;20030;-71
2022/04/07 06:32:43;;;;;;;2.90;1.58;;;;;;;;;;5011028;28;20116;-71
2022/04/07 06:35:11;;;;;;;3.53;1.63;;;;;;;;;;5014065;28;20029;-70
2022/04/07 06:37:54;;;;;;;3.78;1.38;;;;;;;;;;5012502;28;20040;-71
2022/04/07 06:40:24;;;;;;;3.67;1.65;;;;;;;;;;5005195;28;20671;-71
2022/04/07 06:42:51;;;;;;;2.42;1.20;;;;;;;;;;5014057;28;20034;-71
2022/04/07 06:45:17;;;;;;;6.15;2.17;;;;;;;;;;5013173;28;20063;-71
2022/04/07 06:47:43;;;;;;;2.20;1.40;;;;;;;;;;5012570;28;20075;-70
2022/04/07 06:50:13;;;;;;;4.05;1.70;;;;;;;;;;5013629;28;20017;-71
2022/04/07 06:52:38;;;;;;;2.85;1.13;;;;;;;;;;5012298;28;20029;-71
2022/04/07 06:55:04;;;;;;;3.83;1.50;;;;;;;;;;5013110;28;20045;-71
2022/04/07 06:57:30;;;;;;;4.07;1.55;;;;;;;;;;5012300;28;20034;-71
2022/04/07 06:59:55;;;;;;;2.70;1.65;;;;;;;;;;5011644;28;20038;-71
2022/04/07 07:02:21;;;;;;;2.72;1.13;;;;;;;;;;5012323;28;20092;-71
2022/04/07 07:04:46;;;;;;;2.85;1.13;;;;;;;;;;5018489;28;20505;-71
2022/04/07 07:07:11;;;;;;;4.00;1.35;;;;;;;;;;5011113;28;20045;-71
2022/04/07 07:09:37;;;;;;;2.92;1.33;;;;;;;;;;5012981;28;20084;-71
2022/04/07 07:12:03;;;;;;;5.40;1.58;;;;;;;;;;5012574;28;20044;-71
2022/04/07 07:14:30;;;;;;;3.25;1.70;;;;;;;;;;5012935;28;20078;-71
2022/04/07 07:16:56;;;;;;;3.50;1.60;;;;;;;;;;5013338;28;20033;-71
2022/04/07 07:19:26;;;;;;;2.17;1.88;;;;;;;;;;5010429;28;20041;-71
2022/04/07 07:21:52;;;;;;;1.98;1.45;;;;;;;;;;5011441;28;20038;-72
2022/04/07 07:24:18;;;;;;;2.13;1.40;;;;;;;;;;5012072;28;20064;-71
2022/04/07 07:26:43;;;;;;;3.53;1.90;;;;;;;;;;5010936;28;20414;-71
2022/04/07 07:29:09;;;;;;;4.90;1.75;;;;;;;;;;5012656;28;20113;-71
2022/04/07 07:31:36;;;;;;;2.72;1.70;;;;;;;;;;5012908;28;20045;-71
2022/04/07 07:34:03;;;;;;;2.10;1.45;;;;;;;;;;5011989;28;20049;-71
2022/04/07 07:36:28;;;;;;;3.35;1.65;;;;;;;;;;5008861;28;20427;-71
2022/04/07 07:38:54;;;;;;;2.90;1.58;;;;;;;;;;5009139;28;20626;-71
2022/04/07 07:41:19;;;;;;;2.50;1.48;;;;;;;;;;5010039;28;20041;-71
2022/04/07 07:43:44;;;;;;;1.70;1.27;;;;;;;;;;5010675;28;20045;-71
2022/04/07 07:46:10;;;;;;;2.67;1.35;;;;;;;;;;5009482;28;20041;-71
2022/04/07 07:48:35;;;;;;;2.83;1.05;;;;;;;;;;5007282;28;20042;-71
2022/04/07 07:51:01;;;;;;;2.30;1.33;;;;;;;;;;5009412;28;20038;-71
2022/04/07 07:53:26;;;;;;;1.45;1.13;;;;;;;;;;5007568;28;21014;-71
2022/04/07 07:55:54;;;;;;;4.85;1.73;;;;;;;;;;5009748;28;20424;-71
2022/04/07 07:58:20;;;;;;;5.00;1.70;;;;;;;;;;5008725;28;20634;-71
2022/04/07 08:00:45;;;;;;;3.70;1.55;;;;;;;;;;5009544;28;20042;-71
2022/04/07 08:03:10;;;;;;;2.10;1.60;;;;;;;;;;5009190;28;20154;-71
2022/04/07 08:05:36;;;;;;;1.60;1.30;;;;;;;;;;5022441;28;20136;-70
2022/04/07 08:08:01;;;;;;;1.90;1.40;;;;;;;;;;5010547;28;20029;-70
2022/04/07 08:10:27;;;;;;;2.90;1.98;;;;;;;;;;5008298;28;20704;-70
2022/04/07 08:12:52;;;;;;;3.67;2.00;;;;;;;;;;5007456;28;20088;-70
2022/04/07 08:15:17;;;;;;;5.65;1.58;;;;;;;;;;5008416;28;20046;-72
2022/04/07 08:17:43;;;;;;;6.93;1.10;;;;;;;;;;5009273;28;20476;-74
2022/04/07 08:20:08;;;;;;;2.20;0.90;;;;;;;;;;5008294;28;20672;-73
2022/04/07 08:22:34;;;;;;;2.65;1.42;;;;;;;;;;5007397;28;20058;-72
2022/04/07 08:25:00;;;;;;;3.22;1.23;;;;;;;;;;5000102;28;20084;-73
2022/04/07 08:27:25;;;;;;;1.55;1.08;;;;;;;;;;5006180;28;20058;-72
2022/04/07 08:29:51;;;;;;;2.05;0.98;;;;;;;;;;5008011;28;20092;-72
2022/04/07 08:32:17;;;;;;;1.10;0.73;;;;;;;;;;5009035;28;20057;-72
2022/04/07 08:34:42;;;;;;;2.35;1.42;;;;;;;;;;5007756;28;20431;-72
2022/04/07 08:37:07;;;;;;;2.88;1.25;;;;;;;;;;5008726;28;20068;-73
2022/04/07 08:39:33;;;;;;;2.67;1.48;;;;;;;;;;5006383;28;20045;-73
2022/04/07 08:41:59;;;;;;;4.78;1.23;;;;;;;;;;5008465;28;20137;-73
2022/04/07 08:44:31;;;;;;;2.47;1.23;;;;;;;;;;5009476;28;20040;-72
2022/04/07 08:46:57;;;;;;;2.85;1.35;;;;;;;;;;5008815;28;20439;-72
2022/04/07 08:49:23;;;;;;;1.52;1.13;;;;;;;;;;5007687;28;20692;-72
2022/04/07 08:51:51;;;;;;;3.20;1.70;;;;;;;;;;5008385;28;20064;-72
2022/04/07 08:54:16;;;;;;;7.18;1.60;;;;;;;;;;5007726;28;20038;-72
2022/04/07 08:56:42;;;;;;;3.60;1.73;;;;;;;;;;5007311;28;20038;-72
2022/04/07 08:59:07;;;;;;;3.72;1.52;;;;;;;;;;5008634;28;20032;-72
2022/04/07 09:01:33;;;;;;;2.20;1.35;;;;;;;;;;5006896;28;20034;-72
2022/04/07 09:03:58;;;;;;;3.58;1.05;;;;;;;;;;5009740;28;20042;-72
2022/04/07 09:06:25;;;;;;;5.43;1.40;;;;;;;;;;5008998;28;20045;-72
2022/04/07 09:08:51;;;;;;;6.13;1.20;;;;;;;;;;5008098;28;20042;-72
2022/04/07 09:11:18;;;;;;;3.42;1.27;;;;;;;;;;5007807;28;20102;-72
2022/04/07 09:13:49;;;;;;;2.85;1.00;;;;;;;;;;5007623;28;20422;-72
2022/04/07 09:16:15;;;;;;;3.63;1.30;;;;;;;;;;5005752;28;20111;-72
2022/04/07 09:18:42;;;;;;;3.92;1.00;;;;;;;;;;5007834;28;20038;-72
2022/04/07 09:21:17;;;;;;;3.70;1.23;;;;;;;;;;5006464;28;20034;-72
2022/04/07 09:23:43;;;;;;;3.05;1.10;;;;;;;;;;5008037;28;20068;-72
2022/04/07 09:26:16;;;;;;;4.90;1.00;;;;;;;;;;5007852;28;20053;-72
2022/04/07 09:28:42;;;;;;;2.47;1.02;;;;;;;;;;5007575;28;20034;-72
2022/04/07 09:31:15;;;;;;;4.18;0.80;;;;;;;;;;5005712;28;20411;-72
2022/04/07 09:33:41;;;;;;;4.65;1.00;;;;;;;;;;5007697;28;20071;-72
2022/04/07 09:36:11;;;;;;;3.63;1.20;;;;;;;;;;5005477;28;20033;-72
2022/04/07 09:38:38;;;;;;;4.13;1.00;;;;;;;;;;5006078;28;20030;-72
2022/04/07 09:41:06;;;;;;;4.97;0.90;;;;;;;;;;5006960;28;20029;-72
2022/04/07 09:43:49;;;;;;;7.13;1.05;;;;;;;;;;5009280;28;20042;-72
2022/04/07 09:46:19;;;;;;;6.22;1.10;;;;;;;;;;5006844;28;20030;-72
2022/04/07 09:48:58;;;;;;;4.47;1.05;;;;;;;;;;5006471;28;20046;-72
2022/04/07 09:51:24;;;;;;;1.58;1.00;;;;;;;;;;5006736;28;20030;-72
2022/04/07 09:53:50;;;;;;;3.45;1.20;;;;;;;;;;5006448;28;20092;-72
2022/04/07 09:56:18;;;;;;;2.85;1.20;;;;;;;;;;5007362;28;20030;-72
2022/04/07 09:58:43;;;;;;;4.78;1.67;;;;;;;;;;5007368;28;20053;-72
2022/04/07 10:01:10;;;;;;;9.55;1.70;;;;;;;;;;5004683;28;20046;-72
2022/04/07 10:03:36;;;;;;;5.45;1.38;;;;;;;;;;5007386;28;20042;-72
2022/04/07 10:06:01;;;;;;;5.63;1.42;;;;;;;;;;5007530;28;20068;-72
2022/04/07 10:08:27;;;;;;;4.47;1.17;;;;;;;;;;5006115;28;20045;-72
2022/04/07 10:10:54;;;;;;;5.25;1.30;;;;;;;;;;5007451;28;20651;-72
2022/04/07 10:13:20;;;;;;;7.65;2.08;;;;;;;;;;5006913;28;20045;-72
2022/04/07 10:15:47;;;;;;;5.40;1.33;;;;;;;;;;5002094;28;20104;-72
2022/04/07 10:18:35;;;;;;;6.70;1.60;;;;;;;;;;5005716;28;20042;-72
2022/04/07 10:21:03;;;;;;;5.20;1.20;;;;;;;;;;5006937;28;20593;-72
2022/04/07 10:23:47;;;;;;;5.15;1.30;;;;;;;;;;5012505;28;20048;-72
2022/04/07 10:26:14;;;;;;;7.30;1.23;;;;;;;;;;5007669;28;20511;-73
2022/04/07 10:28:39;;;;;;;7.43;1.65;;;;;;;;;;5005966;28;20570;-72
2022/04/07 10:31:15;;;;;;;8.57;1.55;;;;;;;;;;5007185;28;20034;-72
2022/04/07 10:33:48;;;;;;;5.65;1.73;;;;;;;;;;5004116;28;20638;-73
2022/04/07 10:36:18;;;;;;;7.18;1.50;;;;;;;;;;5006762;28;20419;-73
2022/04/07 10:38:47;;;;;;;7.40;1.40;;;;;;;;;;5006094;28;20049;-73
2022/04/07 10:41:38;;;;;;;8.85;1.35;;;;;;;;;;5006022;28;20030;-73
2022/04/07 10:44:10;;;;;;;7.47;1.40;;;;;;;;;;5019691;28;20044;-72
2022/04/07 10:46:35;;;;;;;7.20;1.20;;;;;;;;;;4988795;28;20049;-73
2022/04/07 10:49:12;;;;;;;6.10;1.17;;;;;;;;;;5005033;28;20046;-73
2022/04/07 10:51:42;;;;;;;5.32;1.55;;;;;;;;;;5006408;28;20038;-73
2022/04/07 10:54:08;;;;;;;9.77;1.98;;;;;;;;;;5004830;28;20046;-73
2022/04/07 10:56:39;;;;;;;9.68;1.48;;;;;;;;;;5005308;28;20349;-72
2022/04/07 10:59:26;;;;;;;6.93;2.13;;;;;;;;;;5006767;28;20471;-73
2022/04/07 11:01:56;;;;;;;9.02;1.60;;;;;;;;;;5000887;28;20062;-73
2022/04/07 11:04:21;;;;;;;9.68;1.52;;;;;;;;;;5005413;28;20483;-72
2022/04/07 11:07:11;;;;;;;12.10;2.72;;;;;;;;;;5007454;28;20558;-73
2022/04/07 11:09:47;;;;;;;8.77;1.52;;;;;;;;;;5004596;28;20434;-73
2022/04/07 11:12:19;;;;;;;8.18;1.50;;;;;;;;;;5009809;28;20530;-73
2022/04/07 11:14:46;;;;;;;10.73;1.98;;;;;;;;;;5007505;28;20044;-73
2022/04/07 11:17:36;;;;;;;5.00;1.75;;;;;;;;;;5010454;28;20040;-74
2022/04/07 11:20:20;;;;;;;10.95;1.85;;;;;;;;;;5009183;28;20037;-73
2022/04/07 11:23:08;;;;;;;8.38;1.83;;;;;;;;;;5010376;28;20038;-73
2022/04/07 11:25:41;;;;;;;7.53;1.52;;;;;;;;;;4998591;28;20045;-73
2022/04/07 11:28:13;;;;;;;7.03;1.33;;;;;;;;;;4999784;28;20045;-73
2022/04/07 11:30:56;;;;;;;8.05;1.50;;;;;;;;;;4998763;28;20038;-73
2022/04/07 11:33:25;;;;;;;9.98;1.30;;;;;;;;;;5009102;28;20049;-73
2022/04/07 11:36:00;;;;;;;8.68;1.85;;;;;;;;;;5010037;28;20471;-73
2022/04/07 11:38:28;;;;;;;12.95;2.28;;;;;;;;;;5008921;28;20037;-72
2022/04/07 11:41:04;;;;;;;7.45;1.83;;;;;;;;;;5009905;28;20511;-73
2022/04/07 11:43:30;;;;;;;10.20;2.33;;;;;;;;;;5009384;28;20046;-73
2022/04/07 11:45:56;;;;;;;11.32;1.77;;;;;;;;;;5009716;28;20116;-73
2022/04/07 11:48:23;;;;;;;10.52;2.03;;;;;;;;;;5009965;28;20045;-73
2022/04/07 11:50:49;;;;;;;7.88;1.88;;;;;;;;;;5009171;28;20046;-73
2022/04/07 11:53:16;;;;;;;8.23;1.85;;;;;;;;;;5011105;28;20030;-73
2022/04/07 11:55:41;;;;;;;14.35;2.50;;;;;;;;;;5007761;28;20058;-73
2022/04/07 11:58:09;;;;;;;11.15;2.33;;;;;;;;;;5010899;28;20120;-73
2022/04/07 12:00:35;;;;;;;6.05;1.70;;;;;;;;;;5006871;28;20057;-73
2022/04/07 12:03:05;;;;;;;15.13;2.78;;;;;;;;;;5010051;28;20046;-73
2022/04/07 12:05:30;;;;;;;10.05;1.75;;;;;;;;;;5006732;28;20029;-73
2022/04/07 12:08:04;;;;;;;7.57;1.75;;;;;;;;;;5010264;28;20018;-73
2022/04/07 12:10:29;;;;;;;12.88;2.13;;;;;;;;;;5007747;28;20077;-73
2022/04/07 12:12:55;;;;;;;11.95;1.90;;;;;;;;;;5008903;28;20633;-73
2022/04/07 12:15:20;;;;;;;9.98;2.08;;;;;;;;;;5008313;28;20521;-73
2022/04/07 12:17:58;;;;;;;9.57;2.10;;;;;;;;;;5009419;28;20121;-73
2022/04/07 12:20:24;;;;;;;14.55;2.30;;;;;;;;;;5006905;28;20440;-73
2022/04/07 12:23:03;;;;;;;9.38;2.35;;;;;;;;;;5010293;28;20034;-74
2022/04/07 12:25:28;;;;;;;12.13;1.77;;;;;;;;;;5015137;28;20034;-74
2022/04/07 12:28:06;;;;;;;10.88;2.03;;;;;;;;;;4996466;28;20068;-73
2022/04/07 12:31:01;;;;;;;7.15;1.75;;;;;;;;;;5014920;28;20038;-74
2022/04/07 12:33:53;;;;;;;9.65;1.98;;;;;;;;;;4997014;28;20045;-74
2022/04/07 12:36:27;;;;;;;8.50;1.92;;;;;;;;;;5005043;28;20085;-73
2022/04/07 12:39:00;;;;;;;9.55;1.55;;;;;;;;;;5010051;28;20723;-74
2022/04/07 12:41:38;;;;;;;;;;;;;;;;;;5007633;28;20519;-73
2022/04/07 12:44:04;;;;;;;14.95;2.40;;;;;;;;;;5012048;28;19937;-73
2022/04/07 12:46:45;;;;;;;7.95;1.92;;;;;;;;;;5007495;28;20061;-73
2022/04/07 12:49:11;;;;;;;8.63;2.38;;;;;;;;;;5010155;28;20030;-74
2022/04/07 12:51:38;;;;;;;9.68;1.80;;;;;;;;;;5007447;28;20044;-73
2022/04/07 12:54:13;;;;;;;8.85;2.00;;;;;;;;;;5009051;28;20045;-73
2022/04/07 12:56:41;;;;;;;11.80;2.15;;;;;;;;;;5006797;28;20073;-73
2022/04/07 12:59:10;;;;;;;7.07;2.08;;;;;;;;;;5009668;28;20113;-73
2022/04/07 13:01:36;;;;;;;10.68;2.05;;;;;;;;;;5006329;28;20096;-73
2022/04/07 13:04:04;;;;;;;10.65;2.13;;;;;;;;;;5008715;28;20119;-73
2022/04/07 13:06:31;;;;;;;10.25;2.10;;;;;;;;;;5000437;28;20044;-74
2022/04/07 13:08:56;;;;;;;7.70;1.95;;;;;;;;;;5008960;28;20538;-73
2022/04/07 13:11:32;;;;;;;12.77;2.75;;;;;;;;;;5006582;28;20022;-73
2022/04/07 13:13:57;;;;;;;8.60;2.42;;;;;;;;;;5009002;28;20033;-73
2022/04/07 13:16:23;;;;;;;9.93;2.33;;;;;;;;;;5006406;28;20045;-73
2022/04/07 13:18:48;;;;;;;7.63;2.28;;;;;;;;;;5008831;28;20049;-73
2022/04/07 13:21:15;;;;;;;15.65;2.40;;;;;;;;;;5007004;28;20037;-73
2022/04/07 13:23:40;;;;;;;10.52;2.10;;;;;;;;;;5016515;28;20036;-74
2022/04/07 13:26:05;;;;;;;9.55;2.22;;;;;;;;;;5021320;28;20065;-73
2022/04/07 13:28:31;;;;;;;12.02;3.00;;;;;;;;;;5007375;28;20519;-73
2022/04/07 13:30:57;;;;;;;12.90;2.35;;;;;;;;;;5007441;28;20041;-73
2022/04/07 13:33:23;;;;;;;9.13;2.80;;;;;;;;;;5007444;28;20192;-73
2022/04/07 13:35:50;;;;;;;8.75;2.10;;;;;;;;;;5006097;28;20555;-75
2022/04/07 13:38:19;;;;;;;10.73;2.35;;;;;;;;;;5005333;28;20017;-73
2022/04/07 13:40:47;;;;;;;9.60;2.42;;;;;;;;;;5008342;28;20082;-73
2022/04/07 13:43:13;;;;;;;6.97;2.03;;;;;;;;;;5007695;28;20096;-73
2022/04/07 13:45:39;;;;;;;16.17;1.95;;;;;;;;;;5008723;28;20033;-74
2022/04/07 13:48:04;;;;;;;11.98;2.80;;;;;;;;;;5006010;28;20033;-74
2022/04/07 13:50:30;;;;;;;12.27;2.65;;;;;;;;;;5006831;28;20050;-73
2022/04/07 13:52:56;;;;;;;7.32;1.80;;;;;;;;;;5006450;28;20475;-74
2022/04/07 13:55:21;;;;;;;8.70;2.00;;;;;;;;;;5007934;28;20075;-73
2022/04/07 13:57:46;;;;;;;11.88;2.75;;;;;;;;;;5005905;28;20034;-73
2022/04/07 14:00:14;;;;;;;11.13;2.10;;;;;;;;;;5007288;28;20038;-73
2022/04/07 14:02:40;;;;;;;11.70;2.50;;;;;;;;;;5004191;28;20081;-73
2022/04/07 14:05:06;;;;;;;8.77;2.20;;;;;;;;;;5019064;28;20431;-74
2022/04/07 14:07:31;;;;;;;12.50;1.85;;;;;;;;;;5015915;28;20060;-73
2022/04/07 14:09:56;;;;;;;10.73;1.67;;;;;;;;;;5007353;28;20044;-73
2022/04/07 14:12:22;;;;;;;6.38;1.52;;;;;;;;;;5004538;28;20079;-73
2022/04/07 14:14:48;;;;;;;11.50;2.35;;;;;;;;;;5007529;28;20052;-74
2022/04/07 14:17:13;;;;;;;8.32;2.13;;;;;;;;;;5004901;28;20577;-73
2022/04/07 14:19:39;;;;;;;9.23;2.03;;;;;;;;;;5007641;28;20034;-73
2022/04/07 14:22:07;;;;;;;9.30;2.40;;;;;;;;;;5005676;28;20213;-73
2022/04/07 14:24:32;;;;;;;9.38;2.20;;;;;;;;;;5014481;28;20119;-73
2022/04/07 14:26:58;;;;;;;13.85;1.92;;;;;;;;;;5003283;28;20581;-74
2022/04/07 14:29:23;;;;;;;9.15;2.08;;;;;;;;;;5005562;28;20034;-73
2022/04/07 14:31:48;;;;;;;10.65;2.00;;;;;;;;;;5008104;28;20017;-74
2022/04/07 14:34:14;;;;;;;11.80;3.00;;;;;;;;;;5003617;28;20661;-73
2022/04/07 14:36:41;;;;;;;15.68;2.05;;;;;;;;;;5008177;28;20037;-74
2022/04/07 14:39:06;;;;;;;9.77;1.90;;;;;;;;;;5003948;28;20057;-73
2022/04/07 14:41:33;;;;;;;9.05;2.40;;;;;;;;;;5007361;28;20061;-73